This is the latest recevied weather packets stored in our database for station/object KE8WMS. If no packets are shown the sender has not sent any weather packets the latest 10 day(s).
| Time | Temp. | Humidity | Pressure | Rain* | Wind** | Luminosity | Snow |
|---|---|---|---|---|---|---|---|
| 1778087483 | 10.56° C | 76% | 1009.8 hPa | 0 mm | - | 631 W/m² | - |
| 1778087180 | 10.56° C | 77% | 1009.8 hPa | 0 mm | - | 508 W/m² | - |
| 1778086877 | 11.11° C | 75% | 1009.9 hPa | 0 mm | - | 872 W/m² | - |
| 1778086576 | 10° C | 78% | 1009.8 hPa | 0 mm | - | 474 W/m² | - |
| 1778086271 | 10.56° C | 76% | 1009.9 hPa | 0 mm | - | 783 W/m² | - |
| 1778085969 | 10.56° C | 78% | 1009.7 hPa | 0 mm | - | 838 W/m² | - |
| 1778085666 | 10.56° C | 78% | 1009.2 hPa | 0 mm | - | 777 W/m² | - |
| 1778085361 | 10.56° C | 75% | 1009.5 hPa | 0 mm | - | 769 W/m² | - |
| 1778085058 | 10° C | 77% | 1009.3 hPa | 0 mm | - | 765 W/m² | - |
| 1778084754 | 9.44° C | 78% | 1009.2 hPa | 0 mm | - | 763 W/m² | - |
| 1778084451 | 9.44° C | 77% | 1009.4 hPa | 0 mm | - | 775 W/m² | - |
| 1778084149 | 10° C | 79% | 1009.3 hPa | 0 mm | - | 746 W/m² | - |
| 1778083846 | 10.56° C | 78% | 1009 hPa | 0 mm | - | 712 W/m² | - |
| 1778083544 | 10° C | 79% | 1009 hPa | 0 mm | - | 832 W/m² | - |
| 1778083240 | 10° C | 79% | 1009.1 hPa | 0 mm | - | 806 W/m² | - |
| 1778082939 | 10° C | 80% | 1009.2 hPa | 0 mm | - | 769 W/m² | - |
| 1778081835 | 9.44° C | 83% | 1008.8 hPa | 0 mm | - | 720 W/m² | - |
| 1778081533 | 9.44° C | 83% | 1008.8 hPa | 0 mm | - | 708 W/m² | - |
| 1778081230 | 9.44° C | 86% | 1008.6 hPa | 0 mm | - | 596 W/m² | - |
| 1778080927 | 8.89° C | 86% | 1008.4 hPa | 0 mm | - | 711 W/m² | - |
| 1778080626 | 8.89° C | 86% | 1008.5 hPa | 0 mm | - | 413 W/m² | - |
| 1778080322 | 9.44° C | 86% | 1008.2 hPa | 0 mm | - | 646 W/m² | - |
| 1778080019 | 8.89° C | 86% | 1008.3 hPa | 0 mm | - | 434 W/m² | - |
| 1778079716 | 9.44° C | 86% | 1008 hPa | 0 mm | - | 369 W/m² | - |
| 1778079412 | 10° C | 87% | 1008.2 hPa | 0 mm | - | 508 W/m² | - |
* Rain latest hour (hover to see other rain measurements)
** Current wind speed in m/s (hover to see current wind gust speed)